Time;durP1;ratioP1;P1;durP2;ratioP2;P2;SDS_P1;SDS_P2;PMS_P1;PMS_P2;Temp;Humidity;BMP_temperature;BMP_pressure;BME280_temperature;BME280_humidity;BME280_pressure;Samples;Min_cycle;Max_cycle;Signal;HPM_P1;HPM_P2
2023/08/14 00:01:10;;;;;;;7.00;4.50;;;;;;;;;;5133184;27;20772;-77
2023/08/14 00:03:37;;;;;;;5.43;3.80;;;;;;;;;;5130155;28;20504;-73
2023/08/14 00:06:03;;;;;;;7.23;4.00;;;;;;;;;;5139643;27;20457;-75
2023/08/14 00:08:29;;;;;;;9.10;5.10;;;;;;;;;;5131166;28;20548;-76
2023/08/14 00:10:56;;;;;;;6.47;4.77;;;;;;;;;;5135237;27;20562;-75
2023/08/14 00:13:23;;;;;;;5.60;4.17;;;;;;;;;;5135393;28;20465;-77
2023/08/14 00:15:49;;;;;;;7.97;4.53;;;;;;;;;;5135117;27;20532;-76
2023/08/14 00:18:17;;;;;;;4.80;4.30;;;;;;;;;;5133330;28;20481;-77
2023/08/14 00:20:44;;;;;;;6.30;3.77;;;;;;;;;;5140105;28;20509;-77
2023/08/14 00:23:10;;;;;;;6.33;4.63;;;;;;;;;;5142176;27;20658;-76
2023/08/14 00:25:36;;;;;;;8.27;4.30;;;;;;;;;;5140017;27;20848;-77
2023/08/14 00:28:03;;;;;;;8.70;4.57;;;;;;;;;;5132660;27;20512;-76
2023/08/14 00:30:29;;;;;;;7.53;4.00;;;;;;;;;;5131996;28;20478;-73
2023/08/14 00:32:56;;;;;;;7.20;4.17;;;;;;;;;;5144668;27;20491;-75
2023/08/14 00:35:24;;;;;;;9.13;3.90;;;;;;;;;;5128182;27;20456;-77
2023/08/14 00:37:50;;;;;;;8.97;3.90;;;;;;;;;;5137399;27;20476;-74
2023/08/14 00:40:17;;;;;;;6.90;3.83;;;;;;;;;;5137486;27;20468;-75
2023/08/14 00:42:45;;;;;;;5.77;4.37;;;;;;;;;;5139891;27;20536;-78
2023/08/14 00:45:11;;;;;;;5.30;4.03;;;;;;;;;;5144102;27;20507;-76
2023/08/14 00:47:38;;;;;;;9.77;3.53;;;;;;;;;;5135793;27;20521;-78
2023/08/14 00:50:05;;;;;;;4.27;3.87;;;;;;;;;;5143688;27;20559;-78
2023/08/14 00:52:33;;;;;;;4.47;3.83;;;;;;;;;;5136008;27;20488;-76
2023/08/14 00:55:01;;;;;;;7.47;3.50;;;;;;;;;;5129685;27;20469;-75
2023/08/14 00:57:28;;;;;;;5.77;3.90;;;;;;;;;;5138488;27;20457;-78
2023/08/14 00:59:55;;;;;;;6.27;3.90;;;;;;;;;;5141270;27;20484;-76
2023/08/14 01:02:22;;;;;;;7.83;3.67;;;;;;;;;;5128158;27;20486;-78
2023/08/14 01:04:49;;;;;;;7.00;4.33;;;;;;;;;;5141952;27;20512;-77
2023/08/14 01:07:15;;;;;;;6.53;3.77;;;;;;;;;;5141656;27;21060;-75
2023/08/14 01:09:43;;;;;;;6.70;4.20;;;;;;;;;;5128870;27;20492;-75
2023/08/14 01:12:14;;;;;;;4.10;3.70;;;;;;;;;;5126311;27;20469;-78
2023/08/14 01:14:42;;;;;;;6.13;4.30;;;;;;;;;;5137355;27;20481;-78
2023/08/14 01:17:10;;;;;;;7.17;3.93;;;;;;;;;;5139194;27;20481;-75
2023/08/14 01:19:38;;;;;;;6.00;3.90;;;;;;;;;;5138561;27;20563;-75
2023/08/14 01:22:05;;;;;;;4.40;4.00;;;;;;;;;;5131868;27;20996;-78
2023/08/14 01:24:39;;;;;;;4.07;3.67;;;;;;;;;;5119415;27;20482;-78
2023/08/14 01:27:08;;;;;;;5.60;4.00;;;;;;;;;;5135214;27;20790;-75
2023/08/14 01:29:34;;;;;;;5.00;4.07;;;;;;;;;;5145669;27;20484;-78
2023/08/14 01:32:01;;;;;;;5.60;3.83;;;;;;;;;;5134479;27;20460;-75
2023/08/14 01:34:27;;;;;;;8.13;4.70;;;;;;;;;;5131651;27;20527;-78
2023/08/14 01:36:58;;;;;;;8.37;4.47;;;;;;;;;;5133271;27;20505;-78
2023/08/14 01:39:26;;;;;;;7.20;4.20;;;;;;;;;;5130185;27;20553;-78
2023/08/14 01:41:56;;;;;;;5.77;3.93;;;;;;;;;;5131181;27;20549;-75
2023/08/14 01:44:25;;;;;;;8.90;4.00;;;;;;;;;;5141041;27;20473;-78
2023/08/14 01:46:53;;;;;;;7.90;4.27;;;;;;;;;;5121337;27;20521;-76
2023/08/14 01:49:20;;;;;;;7.00;3.50;;;;;;;;;;5130511;27;20576;-79
2023/08/14 01:51:47;;;;;;;5.60;4.27;;;;;;;;;;5130742;27;20485;-74
2023/08/14 01:54:13;;;;;;;8.30;3.53;;;;;;;;;;5132195;27;21013;-78
2023/08/14 01:56:40;;;;;;;5.80;3.77;;;;;;;;;;5140976;27;20513;-77
2023/08/14 01:59:06;;;;;;;5.47;3.57;;;;;;;;;;5139812;27;20552;-75
2023/08/14 02:01:34;;;;;;;5.53;3.53;;;;;;;;;;5133266;27;20525;-75
2023/08/14 02:04:00;;;;;;;8.07;3.90;;;;;;;;;;5129771;27;20488;-78
2023/08/14 02:06:27;;;;;;;5.40;4.07;;;;;;;;;;5127767;27;20466;-78
2023/08/14 02:08:53;;;;;;;6.27;4.40;;;;;;;;;;5131709;27;20489;-77
2023/08/14 02:11:19;;;;;;;7.80;3.60;;;;;;;;;;5141668;27;20462;-74
2023/08/14 02:13:46;;;;;;;7.33;3.90;;;;;;;;;;5130101;27;20492;-73
2023/08/14 02:16:12;;;;;;;5.07;3.50;;;;;;;;;;5132895;27;20485;-77
2023/08/14 02:18:40;;;;;;;9.50;4.00;;;;;;;;;;5132750;27;20457;-76
2023/08/14 02:21:06;;;;;;;6.00;3.37;;;;;;;;;;5116206;27;20506;-72
2023/08/14 02:23:33;;;;;;;6.53;4.03;;;;;;;;;;5116486;27;20446;-75
2023/08/14 02:26:00;;;;;;;4.93;3.83;;;;;;;;;;5137205;27;20873;-77
2023/08/14 02:28:27;;;;;;;6.70;4.30;;;;;;;;;;5140499;27;20483;-77
2023/08/14 02:30:53;;;;;;;6.70;3.60;;;;;;;;;;5137936;27;20465;-77
2023/08/14 02:33:19;;;;;;;4.57;3.60;;;;;;;;;;5143592;27;20516;-77
2023/08/14 02:35:47;;;;;;;4.63;4.13;;;;;;;;;;5137534;27;20449;-79
2023/08/14 02:38:13;;;;;;;9.97;4.40;;;;;;;;;;5134233;27;20457;-78
2023/08/14 02:40:40;;;;;;;4.37;3.80;;;;;;;;;;5148030;27;20525;-79
2023/08/14 02:43:06;;;;;;;5.80;3.93;;;;;;;;;;5138041;27;20546;-79
2023/08/14 02:45:33;;;;;;;7.20;3.90;;;;;;;;;;5146602;27;21162;-79
2023/08/14 02:47:59;;;;;;;4.23;3.83;;;;;;;;;;5140495;27;20461;-77
2023/08/14 02:50:26;;;;;;;7.50;3.70;;;;;;;;;;5125545;27;20489;-76
2023/08/14 02:52:53;;;;;;;7.17;3.93;;;;;;;;;;5131345;27;20915;-79
2023/08/14 02:55:20;;;;;;;8.27;3.80;;;;;;;;;;5138147;27;20476;-79
2023/08/14 02:57:46;;;;;;;6.70;3.87;;;;;;;;;;5127762;27;20933;-77
2023/08/14 03:00:14;;;;;;;4.60;4.20;;;;;;;;;;5125226;27;20460;-78
2023/08/14 03:02:40;;;;;;;5.77;3.77;;;;;;;;;;5133577;27;20451;-79
2023/08/14 03:05:07;;;;;;;5.43;4.10;;;;;;;;;;5138540;27;20581;-78
2023/08/14 03:07:33;;;;;;;4.47;3.43;;;;;;;;;;5123657;27;20455;-79
2023/08/14 03:10:01;;;;;;;3.93;3.53;;;;;;;;;;5147243;27;20991;-75
2023/08/14 03:12:27;;;;;;;5.57;3.60;;;;;;;;;;5128189;27;20454;-79
2023/08/14 03:14:54;;;;;;;8.27;4.50;;;;;;;;;;5133314;27;20481;-78
2023/08/14 03:17:20;;;;;;;4.53;3.90;;;;;;;;;;5128297;27;20490;-77
2023/08/14 03:19:47;;;;;;;6.93;4.80;;;;;;;;;;5136579;27;20478;-73
2023/08/14 03:22:13;;;;;;;6.90;5.03;;;;;;;;;;5125533;27;20516;-75
2023/08/14 03:24:39;;;;;;;4.57;3.70;;;;;;;;;;5135004;27;20519;-75
2023/08/14 03:27:08;;;;;;;7.20;3.97;;;;;;;;;;5151117;27;21024;-76
2023/08/14 03:29:34;;;;;;;6.70;4.63;;;;;;;;;;5130078;27;20571;-74
2023/08/14 03:32:00;;;;;;;8.30;5.40;;;;;;;;;;5124507;27;20481;-76
2023/08/14 03:34:27;;;;;;;6.70;4.20;;;;;;;;;;5138877;27;20474;-78
2023/08/14 03:36:53;;;;;;;6.13;4.77;;;;;;;;;;5139335;27;20450;-78
2023/08/14 03:39:20;;;;;;;4.70;4.20;;;;;;;;;;5129900;28;20471;-79
2023/08/14 03:41:46;;;;;;;6.17;4.50;;;;;;;;;;5142391;27;20821;-76
2023/08/14 03:44:14;;;;;;;7.50;5.10;;;;;;;;;;5131916;28;20549;-76
2023/08/14 03:46:40;;;;;;;4.93;4.40;;;;;;;;;;5139595;27;20517;-77
2023/08/14 03:49:06;;;;;;;6.50;4.37;;;;;;;;;;5132882;28;20496;-74
2023/08/14 03:51:33;;;;;;;6.83;4.60;;;;;;;;;;5141940;27;20813;-77
2023/08/14 03:53:59;;;;;;;7.50;4.63;;;;;;;;;;5138348;28;20449;-68
2023/08/14 03:56:26;;;;;;;7.57;4.77;;;;;;;;;;5134302;28;20517;-68
2023/08/14 03:58:52;;;;;;;5.50;3.87;;;;;;;;;;5141862;27;20485;-67
2023/08/14 04:01:20;;;;;;;6.67;4.00;;;;;;;;;;5132743;27;20600;-68
2023/08/14 04:03:46;;;;;;;6.73;4.50;;;;;;;;;;5133364;28;20450;-68
2023/08/14 04:06:12;;;;;;;4.77;4.30;;;;;;;;;;5130121;27;20556;-67
2023/08/14 04:08:39;;;;;;;8.90;4.50;;;;;;;;;;5145210;27;20520;-67
2023/08/14 04:11:05;;;;;;;5.27;4.30;;;;;;;;;;5137403;27;20516;-68
2023/08/14 04:13:32;;;;;;;7.60;3.73;;;;;;;;;;5134706;27;20460;-67
2023/08/14 04:16:00;;;;;;;4.43;3.60;;;;;;;;;;5133115;27;20526;-67
2023/08/14 04:18:28;;;;;;;5.77;3.73;;;;;;;;;;5129223;27;20513;-66
2023/08/14 04:20:55;;;;;;;9.87;4.30;;;;;;;;;;5141271;27;20538;-66
2023/08/14 04:23:21;;;;;;;9.63;4.57;;;;;;;;;;5129909;27;20943;-66
2023/08/14 04:25:47;;;;;;;3.70;3.37;;;;;;;;;;5128500;27;20564;-65
2023/08/14 04:28:14;;;;;;;3.83;3.40;;;;;;;;;;5129274;27;20958;-66
2023/08/14 04:30:40;;;;;;;4.87;4.23;;;;;;;;;;5121244;27;20517;-68
2023/08/14 04:33:07;;;;;;;5.80;4.13;;;;;;;;;;5129195;27;20513;-68
2023/08/14 04:35:37;;;;;;;6.40;3.90;;;;;;;;;;5130718;27;20450;-67
2023/08/14 04:38:03;;;;;;;4.40;4.00;;;;;;;;;;5122920;27;20442;-67
2023/08/14 04:40:30;;;;;;;6.87;3.80;;;;;;;;;;5135359;27;20512;-67
2023/08/14 04:42:56;;;;;;;5.30;3.80;;;;;;;;;;5135454;27;20488;-67
2023/08/14 04:45:22;;;;;;;9.17;4.00;;;;;;;;;;5133937;27;20568;-68
2023/08/14 04:47:49;;;;;;;5.87;3.87;;;;;;;;;;5142321;27;20536;-67
2023/08/14 04:50:15;;;;;;;5.80;4.20;;;;;;;;;;5137527;27;20603;-67
2023/08/14 04:52:43;;;;;;;7.20;4.77;;;;;;;;;;5134886;27;20532;-67
2023/08/14 04:55:09;;;;;;;6.23;4.20;;;;;;;;;;5125078;27;20513;-67
2023/08/14 04:57:36;;;;;;;4.27;3.87;;;;;;;;;;5121671;27;20475;-67
2023/08/14 05:00:03;;;;;;;5.07;4.23;;;;;;;;;;5119241;27;20793;-66
2023/08/14 05:02:30;;;;;;;9.90;4.10;;;;;;;;;;5131958;27;20619;-67
2023/08/14 05:04:56;;;;;;;9.67;4.20;;;;;;;;;;5131456;27;20505;-67
2023/08/14 05:07:23;;;;;;;7.13;4.23;;;;;;;;;;5135082;27;20485;-68
2023/08/14 05:09:50;;;;;;;6.57;4.00;;;;;;;;;;5134543;27;20556;-68
2023/08/14 05:12:17;;;;;;;6.77;4.07;;;;;;;;;;5139045;27;20512;-68
2023/08/14 05:14:43;;;;;;;4.27;3.33;;;;;;;;;;5140994;27;20506;-68
2023/08/14 05:17:10;;;;;;;4.57;3.67;;;;;;;;;;5137689;27;20496;-68
2023/08/14 05:19:36;;;;;;;5.10;3.63;;;;;;;;;;5135783;27;21125;-68
2023/08/14 05:22:03;;;;;;;6.20;3.63;;;;;;;;;;5128907;27;20476;-68
2023/08/14 05:24:29;;;;;;;6.43;3.30;;;;;;;;;;5129229;27;20469;-69
2023/08/14 05:26:57;;;;;;;5.97;3.20;;;;;;;;;;5131743;27;20576;-68
2023/08/14 05:29:23;;;;;;;7.90;3.20;;;;;;;;;;5128723;27;21393;-69
2023/08/14 05:31:50;;;;;;;5.07;3.40;;;;;;;;;;5135045;27;20441;-69
2023/08/14 05:34:16;;;;;;;5.40;3.27;;;;;;;;;;5128569;27;20517;-67
2023/08/14 05:36:42;;;;;;;3.40;2.80;;;;;;;;;;5131330;27;20541;-68
2023/08/14 05:39:09;;;;;;;6.63;3.13;;;;;;;;;;5134754;27;20460;-68
2023/08/14 05:41:35;;;;;;;4.23;3.20;;;;;;;;;;5126904;27;20438;-68
2023/08/14 05:44:03;;;;;;;7.10;4.20;;;;;;;;;;5137933;27;20476;-68
2023/08/14 05:46:30;;;;;;;6.10;3.63;;;;;;;;;;5121629;27;20474;-68
2023/08/14 05:48:56;;;;;;;6.63;4.13;;;;;;;;;;5138137;27;20587;-68
2023/08/14 05:51:22;;;;;;;6.97;3.80;;;;;;;;;;5135225;27;20539;-68
2023/08/14 05:53:49;;;;;;;4.40;3.57;;;;;;;;;;5136411;27;20546;-68
2023/08/14 05:56:15;;;;;;;7.37;4.00;;;;;;;;;;5132064;27;20636;-68
2023/08/14 05:58:42;;;;;;;6.57;3.73;;;;;;;;;;5127167;27;20544;-69
2023/08/14 06:01:09;;;;;;;5.27;3.57;;;;;;;;;;5123651;27;21033;-69
2023/08/14 06:03:38;;;;;;;5.67;3.80;;;;;;;;;;5127590;27;20525;-67
2023/08/14 06:06:04;;;;;;;9.50;4.27;;;;;;;;;;5125585;27;20520;-70
2023/08/14 06:08:30;;;;;;;4.40;3.97;;;;;;;;;;5131712;27;20471;-69
2023/08/14 06:10:57;;;;;;;6.30;4.80;;;;;;;;;;5129099;27;20441;-70
2023/08/14 06:13:23;;;;;;;5.70;4.30;;;;;;;;;;5125656;27;20914;-70
2023/08/14 06:15:50;;;;;;;6.70;3.50;;;;;;;;;;5138934;27;20465;-70
2023/08/14 06:18:18;;;;;;;6.20;3.77;;;;;;;;;;5127136;27;20465;-70
2023/08/14 06:20:44;;;;;;;7.00;3.50;;;;;;;;;;5139576;27;20642;-69
2023/08/14 06:23:10;;;;;;;5.70;3.90;;;;;;;;;;5129614;27;20831;-70
2023/08/14 06:25:37;;;;;;;6.40;3.80;;;;;;;;;;5126774;27;20540;-69
2023/08/14 06:28:03;;;;;;;5.30;3.50;;;;;;;;;;5131263;27;20576;-67
2023/08/14 06:30:30;;;;;;;4.13;3.73;;;;;;;;;;5136054;27;20473;-69
2023/08/14 06:32:56;;;;;;;9.27;4.43;;;;;;;;;;5131473;27;20793;-69
2023/08/14 06:35:24;;;;;;;7.10;4.07;;;;;;;;;;5140313;27;20460;-70
2023/08/14 06:37:51;;;;;;;5.07;3.80;;;;;;;;;;5129592;27;20460;-70
2023/08/14 06:40:17;;;;;;;4.23;3.47;;;;;;;;;;5128581;27;20469;-69
2023/08/14 06:42:44;;;;;;;6.50;4.13;;;;;;;;;;5130047;27;20507;-69
2023/08/14 06:45:10;;;;;;;8.47;4.23;;;;;;;;;;5134015;27;20482;-70
2023/08/14 06:47:42;;;;;;;8.73;4.90;;;;;;;;;;5135851;27;20508;-70
2023/08/14 06:50:09;;;;;;;6.30;4.53;;;;;;;;;;5132380;27;21034;-70
2023/08/14 06:52:37;;;;;;;6.37;4.13;;;;;;;;;;5133858;27;20496;-70
2023/08/14 06:55:03;;;;;;;7.03;3.97;;;;;;;;;;5133764;27;20445;-70
2023/08/14 06:57:29;;;;;;;4.93;3.80;;;;;;;;;;5126218;27;20548;-70
2023/08/14 06:59:56;;;;;;;6.20;4.27;;;;;;;;;;5122814;27;20689;-70
2023/08/14 07:02:22;;;;;;;5.50;4.03;;;;;;;;;;5126788;27;20757;-69
2023/08/14 07:04:49;;;;;;;7.10;4.53;;;;;;;;;;5134780;27;20465;-70
2023/08/14 07:07:16;;;;;;;8.60;4.30;;;;;;;;;;5124673;27;20541;-71
2023/08/14 07:09:44;;;;;;;6.23;3.60;;;;;;;;;;5127001;27;20458;-70
2023/08/14 07:12:10;;;;;;;4.97;4.30;;;;;;;;;;5124466;27;20534;-69
2023/08/14 07:14:36;;;;;;;12.27;4.53;;;;;;;;;;5148694;27;20908;-68
2023/08/14 07:17:03;;;;;;;5.87;4.20;;;;;;;;;;5131293;27;20517;-69
2023/08/14 07:19:29;;;;;;;7.50;4.00;;;;;;;;;;5127534;27;20477;-70
2023/08/14 07:21:55;;;;;;;6.77;4.30;;;;;;;;;;5128832;27;20437;-70
2023/08/14 07:24:22;;;;;;;8.77;4.20;;;;;;;;;;5135280;27;20702;-70
2023/08/14 07:26:50;;;;;;;4.67;4.23;;;;;;;;;;5137092;27;20540;-70
2023/08/14 07:29:16;;;;;;;7.70;4.30;;;;;;;;;;5120977;27;20970;-70
2023/08/14 07:31:42;;;;;;;6.80;4.23;;;;;;;;;;5133049;27;20507;-70
2023/08/14 07:34:09;;;;;;;5.40;4.10;;;;;;;;;;5129853;27;20540;-70
2023/08/14 07:36:35;;;;;;;12.90;4.70;;;;;;;;;;5128726;27;20897;-70
2023/08/14 07:39:02;;;;;;;5.53;3.93;;;;;;;;;;5130263;27;20556;-70
2023/08/14 07:41:28;;;;;;;8.77;3.93;;;;;;;;;;5134556;27;20469;-70
2023/08/14 07:43:56;;;;;;;5.37;3.77;;;;;;;;;;5123732;27;20937;-70
2023/08/14 07:46:22;;;;;;;8.67;3.93;;;;;;;;;;5128772;27;20681;-66
2023/08/14 07:48:49;;;;;;;5.80;3.70;;;;;;;;;;5124631;27;20462;-71
2023/08/14 07:51:15;;;;;;;5.40;3.70;;;;;;;;;;5141211;27;20596;-70
2023/08/14 07:53:41;;;;;;;4.40;3.70;;;;;;;;;;5126081;27;20816;-70
2023/08/14 07:56:08;;;;;;;5.00;3.93;;;;;;;;;;5143744;27;20477;-70
2023/08/14 07:58:34;;;;;;;4.50;3.60;;;;;;;;;;5141735;27;20452;-70
2023/08/14 08:01:02;;;;;;;4.00;3.40;;;;;;;;;;5139189;27;20748;-69
2023/08/14 08:03:29;;;;;;;6.10;3.90;;;;;;;;;;5134943;27;20453;-70
2023/08/14 08:05:55;;;;;;;5.90;4.13;;;;;;;;;;5148274;27;20934;-68
2023/08/14 08:08:22;;;;;;;7.00;3.50;;;;;;;;;;5136178;27;20457;-71
2023/08/14 08:10:48;;;;;;;5.57;3.60;;;;;;;;;;5138632;27;20465;-70
2023/08/14 08:13:14;;;;;;;6.03;3.63;;;;;;;;;;5133236;27;20491;-70
2023/08/14 08:15:41;;;;;;;5.10;4.03;;;;;;;;;;5135341;27;20454;-70
2023/08/14 08:18:09;;;;;;;9.30;4.57;;;;;;;;;;5130354;27;20485;-70
2023/08/14 08:20:35;;;;;;;8.23;3.10;;;;;;;;;;5137650;27;20538;-70
2023/08/14 08:23:01;;;;;;;6.50;3.40;;;;;;;;;;5139619;27;20543;-70
2023/08/14 08:25:28;;;;;;;8.83;4.27;;;;;;;;;;5135667;27;20481;-70
2023/08/14 08:27:54;;;;;;;8.57;3.57;;;;;;;;;;5128423;27;20517;-70
2023/08/14 08:30:21;;;;;;;4.90;3.60;;;;;;;;;;5133279;27;20512;-70
2023/08/14 08:32:47;;;;;;;5.17;3.20;;;;;;;;;;5129985;27;20484;-70
2023/08/14 08:35:15;;;;;;;5.53;3.07;;;;;;;;;;5140597;27;20512;-70
2023/08/14 08:37:42;;;;;;;5.77;3.83;;;;;;;;;;5136361;27;20495;-70
2023/08/14 08:40:08;;;;;;;7.53;3.20;;;;;;;;;;5142422;27;20451;-71
2023/08/14 08:42:35;;;;;;;5.30;3.53;;;;;;;;;;5128766;27;20478;-69
2023/08/14 08:45:04;;;;;;;4.30;3.03;;;;;;;;;;5142592;27;20445;-70
2023/08/14 08:47:30;;;;;;;6.13;3.00;;;;;;;;;;5127118;27;20883;-70
2023/08/14 08:49:57;;;;;;;6.00;3.20;;;;;;;;;;5135213;27;21145;-71
2023/08/14 08:52:25;;;;;;;4.43;2.70;;;;;;;;;;5132744;27;20492;-71
2023/08/14 08:54:52;;;;;;;5.70;2.67;;;;;;;;;;5130308;27;20809;-71
2023/08/14 08:57:19;;;;;;;6.97;3.30;;;;;;;;;;5131340;27;20469;-70
2023/08/14 08:59:45;;;;;;;4.50;3.20;;;;;;;;;;5129897;27;21041;-70
2023/08/14 09:02:12;;;;;;;4.80;2.93;;;;;;;;;;5145399;27;20679;-70
2023/08/14 09:04:38;;;;;;;6.70;3.17;;;;;;;;;;5142391;27;20458;-70
2023/08/14 09:07:06;;;;;;;6.97;3.33;;;;;;;;;;5132742;27;20513;-70
2023/08/14 09:09:33;;;;;;;7.30;2.90;;;;;;;;;;5146394;27;20551;-70
2023/08/14 09:12:00;;;;;;;5.30;3.20;;;;;;;;;;5145315;27;20524;-68
2023/08/14 09:14:26;;;;;;;7.80;3.37;;;;;;;;;;5130259;27;20469;-69
2023/08/14 09:16:53;;;;;;;9.43;3.70;;;;;;;;;;5146533;27;20453;-69
2023/08/14 09:19:20;;;;;;;8.43;3.40;;;;;;;;;;5135391;27;21022;-70
2023/08/14 09:21:46;;;;;;;7.57;2.43;;;;;;;;;;5131781;27;20834;-70
2023/08/14 09:24:13;;;;;;;3.20;2.40;;;;;;;;;;5127214;27;20463;-69
2023/08/14 09:26:43;;;;;;;4.73;2.80;;;;;;;;;;5134241;27;20500;-70
2023/08/14 09:29:09;;;;;;;5.43;2.83;;;;;;;;;;5136408;27;20460;-69
2023/08/14 09:31:36;;;;;;;8.23;3.07;;;;;;;;;;5146213;27;20571;-69
2023/08/14 09:34:02;;;;;;;5.93;3.10;;;;;;;;;;5128736;27;20492;-70
2023/08/14 09:36:33;;;;;;;4.33;2.47;;;;;;;;;;5147515;27;20515;-71
2023/08/14 09:39:00;;;;;;;5.50;2.70;;;;;;;;;;5133449;27;20478;-70
2023/08/14 09:41:27;;;;;;;5.33;2.70;;;;;;;;;;5132395;27;20477;-70
2023/08/14 09:43:54;;;;;;;5.80;3.10;;;;;;;;;;5146099;27;20449;-69
2023/08/14 09:46:21;;;;;;;3.70;2.70;;;;;;;;;;5134052;27;20461;-71
2023/08/14 09:48:48;;;;;;;5.47;3.03;;;;;;;;;;5126544;27;20886;-71
2023/08/14 09:51:15;;;;;;;8.53;3.23;;;;;;;;;;5147353;27;20489;-71
2023/08/14 09:53:45;;;;;;;5.37;2.77;;;;;;;;;;5137947;27;20456;-71
2023/08/14 09:56:12;;;;;;;7.93;3.90;;;;;;;;;;5139299;27;20926;-71
2023/08/14 09:58:39;;;;;;;5.83;2.77;;;;;;;;;;5134899;27;20473;-70
2023/08/14 10:01:07;;;;;;;6.33;3.00;;;;;;;;;;5124485;27;20475;-69
2023/08/14 10:03:34;;;;;;;4.50;2.80;;;;;;;;;;5136725;27;20500;-71
2023/08/14 10:06:01;;;;;;;5.50;2.70;;;;;;;;;;5123001;27;20476;-71
2023/08/14 10:08:28;;;;;;;6.20;2.90;;;;;;;;;;5118929;27;20493;-69
2023/08/14 10:10:56;;;;;;;8.97;3.70;;;;;;;;;;5134103;27;20482;-71
2023/08/14 10:13:23;;;;;;;5.00;3.10;;;;;;;;;;5119246;27;20507;-70
2023/08/14 10:15:52;;;;;;;9.10;3.47;;;;;;;;;;5128685;27;20781;-71
2023/08/14 10:18:20;;;;;;;7.30;3.30;;;;;;;;;;5134841;27;20508;-71
2023/08/14 10:20:47;;;;;;;10.67;3.83;;;;;;;;;;5134126;27;20473;-71
2023/08/14 10:23:14;;;;;;;7.33;3.10;;;;;;;;;;5126307;27;20446;-69
2023/08/14 10:25:41;;;;;;;5.77;3.50;;;;;;;;;;5141363;27;20445;-70
2023/08/14 10:28:09;;;;;;;4.00;2.67;;;;;;;;;;5132952;27;20482;-70
2023/08/14 10:30:37;;;;;;;6.40;3.10;;;;;;;;;;5146665;27;20469;-69
2023/08/14 10:33:04;;;;;;;5.00;3.03;;;;;;;;;;5129504;27;20462;-70
2023/08/14 10:35:44;;;;;;;4.60;3.33;;;;;;;;;;5134425;27;20883;-70
2023/08/14 10:38:10;;;;;;;5.13;2.87;;;;;;;;;;5125327;27;20480;-71
2023/08/14 10:40:36;;;;;;;6.00;3.37;;;;;;;;;;5132719;27;20492;-71
2023/08/14 10:43:05;;;;;;;5.00;3.30;;;;;;;;;;5146528;27;20448;-70
2023/08/14 10:45:32;;;;;;;6.50;3.33;;;;;;;;;;5123458;27;20449;-70
2023/08/14 10:47:59;;;;;;;5.53;3.17;;;;;;;;;;5131701;27;20484;-70
2023/08/14 10:50:26;;;;;;;4.33;3.80;;;;;;;;;;5128015;27;20506;-71
2023/08/14 10:52:55;;;;;;;6.83;3.07;;;;;;;;;;5127884;27;21013;-70
2023/08/14 10:55:24;;;;;;;5.93;3.50;;;;;;;;;;5122835;27;20511;-71
2023/08/14 10:57:51;;;;;;;6.27;3.30;;;;;;;;;;5148787;27;20441;-71
2023/08/14 11:00:22;;;;;;;6.30;3.33;;;;;;;;;;5139130;27;20486;-71
2023/08/14 11:02:52;;;;;;;7.53;3.77;;;;;;;;;;5145611;27;20479;-71
2023/08/14 11:05:18;;;;;;;4.13;2.80;;;;;;;;;;5134974;27;20441;-71
2023/08/14 11:07:58;;;;;;;8.70;3.57;;;;;;;;;;5139602;27;20537;-71
2023/08/14 11:10:25;;;;;;;6.67;3.13;;;;;;;;;;5121417;27;20972;-71
2023/08/14 11:12:52;;;;;;;4.07;3.10;;;;;;;;;;5127504;27;20556;-71
2023/08/14 11:15:19;;;;;;;12.17;3.60;;;;;;;;;;5134981;27;20473;-70
2023/08/14 11:17:46;;;;;;;5.03;3.13;;;;;;;;;;5129312;27;20486;-71
2023/08/14 11:20:13;;;;;;;9.60;3.20;;;;;;;;;;5122136;27;20581;-71
2023/08/14 11:22:40;;;;;;;4.43;2.70;;;;;;;;;;5127113;27;20546;-70
2023/08/14 11:25:07;;;;;;;5.63;3.50;;;;;;;;;;5130167;27;20516;-70
2023/08/14 11:27:34;;;;;;;5.37;2.87;;;;;;;;;;5132957;27;21041;-69
2023/08/14 11:30:02;;;;;;;6.30;3.13;;;;;;;;;;5136827;27;20884;-71
2023/08/14 11:32:28;;;;;;;7.80;2.90;;;;;;;;;;5124369;27;20473;-70
2023/08/14 11:34:55;;;;;;;5.70;2.93;;;;;;;;;;5131293;27;20486;-71
2023/08/14 11:37:21;;;;;;;5.00;2.47;;;;;;;;;;5133114;27;20517;-70
2023/08/14 11:39:49;;;;;;;7.37;3.27;;;;;;;;;;5135825;27;20445;-71
2023/08/14 11:42:16;;;;;;;6.50;3.10;;;;;;;;;;5124323;27;20475;-69
2023/08/14 11:44:43;;;;;;;6.93;3.07;;;;;;;;;;5135355;27;20476;-71
2023/08/14 11:47:09;;;;;;;5.10;2.87;;;;;;;;;;5131929;28;20475;-69
2023/08/14 11:49:38;;;;;;;4.03;2.90;;;;;;;;;;5132603;27;20748;-69
2023/08/14 11:52:05;;;;;;;6.40;2.77;;;;;;;;;;5129040;28;20473;-71
2023/08/14 11:54:32;;;;;;;4.10;2.60;;;;;;;;;;5135173;28;20541;-70
2023/08/14 11:57:01;;;;;;;5.53;3.10;;;;;;;;;;5124214;28;20557;-71
2023/08/14 11:59:29;;;;;;;3.73;2.80;;;;;;;;;;5128065;28;20455;-71
2023/08/14 12:01:57;;;;;;;6.33;2.90;;;;;;;;;;5121277;28;20457;-69
2023/08/14 12:04:23;;;;;;;9.87;3.17;;;;;;;;;;5131842;28;20553;-70
2023/08/14 12:06:50;;;;;;;6.30;3.03;;;;;;;;;;5127296;27;20484;-70
2023/08/14 12:09:16;;;;;;;5.43;3.07;;;;;;;;;;5134186;27;20918;-71
2023/08/14 12:11:45;;;;;;;8.90;3.80;;;;;;;;;;5132384;27;20544;-71
2023/08/14 12:14:11;;;;;;;5.03;3.37;;;;;;;;;;5123427;27;20513;-71
2023/08/14 12:16:39;;;;;;;7.67;3.10;;;;;;;;;;5134948;27;20479;-71
2023/08/14 12:19:09;;;;;;;7.00;3.00;;;;;;;;;;5132886;27;20808;-70
2023/08/14 12:21:35;;;;;;;6.77;3.70;;;;;;;;;;5132673;27;20506;-70
2023/08/14 12:24:02;;;;;;;6.13;3.20;;;;;;;;;;5126438;27;20477;-71
2023/08/14 12:26:36;;;;;;;6.70;3.10;;;;;;;;;;5121349;27;20492;-70
2023/08/14 12:29:02;;;;;;;5.30;3.30;;;;;;;;;;5135015;28;20484;-71
2023/08/14 12:31:28;;;;;;;4.23;2.93;;;;;;;;;;5132168;27;20480;-70
2023/08/14 12:33:56;;;;;;;5.13;3.20;;;;;;;;;;5127571;27;20489;-71
2023/08/14 12:36:22;;;;;;;3.90;3.10;;;;;;;;;;5134223;27;20450;-70
2023/08/14 12:38:49;;;;;;;7.10;3.30;;;;;;;;;;5133642;27;20457;-71
2023/08/14 12:41:15;;;;;;;5.47;3.00;;;;;;;;;;5135649;27;20481;-71
2023/08/14 12:43:42;;;;;;;5.07;2.80;;;;;;;;;;5135350;27;20957;-71
2023/08/14 12:46:09;;;;;;;6.60;3.10;;;;;;;;;;5134055;27;20448;-71
2023/08/14 12:48:35;;;;;;;6.40;3.00;;;;;;;;;;5140706;27;20530;-71
2023/08/14 12:51:03;;;;;;;10.00;3.60;;;;;;;;;;5135997;27;20501;-70
2023/08/14 12:53:30;;;;;;;7.10;2.80;;;;;;;;;;5134403;27;20970;-71
2023/08/14 12:55:56;;;;;;;6.33;3.40;;;;;;;;;;5133953;27;20457;-70
2023/08/14 12:58:25;;;;;;;6.50;3.67;;;;;;;;;;5141706;27;20448;-69
2023/08/14 13:00:51;;;;;;;6.40;3.60;;;;;;;;;;5136821;27;20441;-71
2023/08/14 13:03:18;;;;;;;4.90;3.20;;;;;;;;;;5139561;27;20481;-69
2023/08/14 13:05:45;;;;;;;6.50;3.30;;;;;;;;;;5128532;27;20450;-68
2023/08/14 13:08:13;;;;;;;10.43;3.80;;;;;;;;;;5137016;27;20520;-68
2023/08/14 13:10:39;;;;;;;7.70;3.93;;;;;;;;;;5133726;27;20512;-71
2023/08/14 13:13:05;;;;;;;9.40;3.30;;;;;;;;;;5126223;27;20457;-70
2023/08/14 13:15:32;;;;;;;5.00;3.60;;;;;;;;;;5149299;27;20735;-72
2023/08/14 13:17:58;;;;;;;6.47;3.37;;;;;;;;;;5137552;27;20522;-71
2023/08/14 13:20:25;;;;;;;5.00;3.70;;;;;;;;;;5123314;27;20549;-71
2023/08/14 13:22:51;;;;;;;7.27;3.97;;;;;;;;;;5141088;27;20516;-69
2023/08/14 13:25:19;;;;;;;6.37;3.43;;;;;;;;;;5138627;27;20445;-71
2023/08/14 13:27:45;;;;;;;7.73;3.03;;;;;;;;;;5125706;27;20568;-71
2023/08/14 13:30:12;;;;;;;5.23;3.60;;;;;;;;;;5134621;27;20552;-71
2023/08/14 13:32:38;;;;;;;5.87;3.57;;;;;;;;;;5142928;27;20482;-70
2023/08/14 13:35:05;;;;;;;6.40;3.40;;;;;;;;;;5128492;27;20884;-71
2023/08/14 13:37:32;;;;;;;5.80;3.50;;;;;;;;;;5134907;27;20529;-70
2023/08/14 13:39:59;;;;;;;5.17;3.23;;;;;;;;;;5135297;27;20561;-69
2023/08/14 13:42:26;;;;;;;9.20;3.63;;;;;;;;;;5122097;27;20454;-69
2023/08/14 13:44:53;;;;;;;6.97;3.63;;;;;;;;;;5136647;27;20543;-71
2023/08/14 13:47:20;;;;;;;11.93;4.13;;;;;;;;;;5132615;27;20464;-69
2023/08/14 13:49:47;;;;;;;5.27;3.03;;;;;;;;;;5136687;27;20511;-71
2023/08/14 13:52:13;;;;;;;5.47;3.60;;;;;;;;;;5132240;27;20448;-71
2023/08/14 13:54:40;;;;;;;6.47;3.90;;;;;;;;;;5139855;27;20448;-69
2023/08/14 13:57:06;;;;;;;4.60;3.10;;;;;;;;;;5141314;27;20438;-69
2023/08/14 13:59:34;;;;;;;5.47;2.90;;;;;;;;;;5133514;27;20450;-72
2023/08/14 14:02:00;;;;;;;6.10;3.03;;;;;;;;;;5129715;27;20441;-72
2023/08/14 14:04:26;;;;;;;5.87;2.97;;;;;;;;;;5138206;27;20514;-72
2023/08/14 14:06:53;;;;;;;7.77;3.17;;;;;;;;;;5131491;27;20632;-71
2023/08/14 14:09:20;;;;;;;5.90;3.27;;;;;;;;;;5129493;27;20479;-71
2023/08/14 14:11:46;;;;;;;5.50;2.80;;;;;;;;;;5138233;27;20458;-72
2023/08/14 14:14:13;;;;;;;9.60;2.90;;;;;;;;;;5126664;27;20482;-71
2023/08/14 14:16:55;;;;;;;4.00;3.10;;;;;;;;;;5139799;27;20453;-71
2023/08/14 14:19:21;;;;;;;7.50;3.67;;;;;;;;;;5145323;27;20552;-71
2023/08/14 14:21:48;;;;;;;8.70;3.63;;;;;;;;;;5140197;27;20481;-72
2023/08/14 14:24:14;;;;;;;4.50;3.33;;;;;;;;;;5140928;27;20480;-71
2023/08/14 14:26:40;;;;;;;7.00;3.27;;;;;;;;;;5118329;27;20514;-71
2023/08/14 14:29:07;;;;;;;6.40;3.63;;;;;;;;;;5143492;27;20557;-71
2023/08/14 14:31:33;;;;;;;6.50;4.13;;;;;;;;;;5122658;27;20669;-71
2023/08/14 14:34:01;;;;;;;7.87;3.67;;;;;;;;;;5130073;27;20521;-72
2023/08/14 14:36:27;;;;;;;6.00;3.10;;;;;;;;;;5137658;27;20504;-71
2023/08/14 14:38:54;;;;;;;6.43;3.30;;;;;;;;;;5148693;27;20516;-71
2023/08/14 14:41:20;;;;;;;5.00;3.17;;;;;;;;;;5134317;27;20446;-71